sensor_id;sensor_type;location;lat;lon;timestamp;P1;durP1;ratioP1;P2;durP2;ratioP2
12072;SDS011;6098;49.004;8.372;2023-09-19T00:10:09;1.08;;;0.98;;
12072;SDS011;6098;49.004;8.372;2023-09-19T00:25:04;1.60;;;0.99;;
12072;SDS011;6098;49.004;8.372;2023-09-19T00:39:56;1.53;;;0.84;;
12072;SDS011;6098;49.004;8.372;2023-09-19T00:54:48;2.43;;;0.90;;
12072;SDS011;6098;49.004;8.372;2023-09-19T01:09:40;1.23;;;0.87;;
12072;SDS011;6098;49.004;8.372;2023-09-19T01:40:04;0.62;;;0.62;;
12072;SDS011;6098;49.004;8.372;2023-09-19T01:54:59;1.81;;;0.80;;
12072;SDS011;6098;49.004;8.372;2023-09-19T02:09:49;1.49;;;1.00;;
12072;SDS011;6098;49.004;8.372;2023-09-19T02:24:42;1.44;;;0.93;;
12072;SDS011;6098;49.004;8.372;2023-09-19T02:39:34;1.24;;;0.74;;
12072;SDS011;6098;49.004;8.372;2023-09-19T02:54:26;1.67;;;1.12;;
12072;SDS011;6098;49.004;8.372;2023-09-19T03:09:18;2.40;;;1.41;;
12072;SDS011;6098;49.004;8.372;2023-09-19T03:24:10;1.91;;;1.31;;
12072;SDS011;6098;49.004;8.372;2023-09-19T03:39:02;1.54;;;1.11;;
12072;SDS011;6098;49.004;8.372;2023-09-19T03:53:54;2.04;;;1.30;;
12072;SDS011;6098;49.004;8.372;2023-09-19T04:08:47;2.78;;;1.90;;
12072;SDS011;6098;49.004;8.372;2023-09-19T04:23:41;2.91;;;1.39;;
12072;SDS011;6098;49.004;8.372;2023-09-19T04:38:34;2.94;;;1.56;;
12072;SDS011;6098;49.004;8.372;2023-09-19T04:53:27;3.14;;;1.44;;
12072;SDS011;6098;49.004;8.372;2023-09-19T05:08:19;3.54;;;1.50;;
12072;SDS011;6098;49.004;8.372;2023-09-19T05:23:11;3.57;;;1.66;;
12072;SDS011;6098;49.004;8.372;2023-09-19T05:38:03;2.44;;;1.59;;
12072;SDS011;6098;49.004;8.372;2023-09-19T05:52:55;2.80;;;1.42;;
12072;SDS011;6098;49.004;8.372;2023-09-19T06:07:47;3.03;;;1.58;;
12072;SDS011;6098;49.004;8.372;2023-09-19T06:37:31;2.37;;;1.48;;
12072;SDS011;6098;49.004;8.372;2023-09-19T06:52:24;3.18;;;1.49;;
12072;SDS011;6098;49.004;8.372;2023-09-19T07:07:16;3.63;;;1.30;;
12072;SDS011;6098;49.004;8.372;2023-09-19T07:22:08;4.74;;;1.60;;
12072;SDS011;6098;49.004;8.372;2023-09-19T07:37:02;2.74;;;1.78;;
12072;SDS011;6098;49.004;8.372;2023-09-19T07:51:53;4.47;;;1.60;;
12072;SDS011;6098;49.004;8.372;2023-09-19T08:06:46;3.58;;;1.45;;
12072;SDS011;6098;49.004;8.372;2023-09-19T08:21:40;1.64;;;1.20;;
12072;SDS011;6098;49.004;8.372;2023-09-19T08:36:33;1.87;;;0.98;;
12072;SDS011;6098;49.004;8.372;2023-09-19T08:51:44;1.96;;;1.04;;
12072;SDS011;6098;49.004;8.372;2023-09-19T09:06:44;1.58;;;1.02;;
12072;SDS011;6098;49.004;8.372;2023-09-19T09:21:37;2.87;;;0.82;;
12072;SDS011;6098;49.004;8.372;2023-09-19T09:36:34;2.44;;;1.10;;
12072;SDS011;6098;49.004;8.372;2023-09-19T09:51:32;2.28;;;1.00;;
12072;SDS011;6098;49.004;8.372;2023-09-19T10:06:24;1.34;;;0.94;;
12072;SDS011;6098;49.004;8.372;2023-09-19T10:21:17;1.85;;;0.96;;
12072;SDS011;6098;49.004;8.372;2023-09-19T10:36:10;2.33;;;1.04;;
12072;SDS011;6098;49.004;8.372;2023-09-19T10:51:11;2.99;;;1.20;;
12072;SDS011;6098;49.004;8.372;2023-09-19T11:06:11;1.27;;;1.08;;
12072;SDS011;6098;49.004;8.372;2023-09-19T11:36:28;3.08;;;1.10;;
12072;SDS011;6098;49.004;8.372;2023-09-19T12:06:14;2.86;;;1.14;;
12072;SDS011;6098;49.004;8.372;2023-09-19T12:21:07;2.04;;;1.09;;
12072;SDS011;6098;49.004;8.372;2023-09-19T12:36:00;2.59;;;1.08;;
12072;SDS011;6098;49.004;8.372;2023-09-19T12:51:03;0.93;;;0.80;;
12072;SDS011;6098;49.004;8.372;2023-09-19T13:06:03;1.81;;;1.15;;
12072;SDS011;6098;49.004;8.372;2023-09-19T13:21:05;2.94;;;1.00;;
12072;SDS011;6098;49.004;8.372;2023-09-19T13:36:07;2.54;;;1.40;;
12072;SDS011;6098;49.004;8.372;2023-09-19T13:51:01;1.66;;;1.14;;
12072;SDS011;6098;49.004;8.372;2023-09-19T14:05:53;4.90;;;1.20;;
12072;SDS011;6098;49.004;8.372;2023-09-19T14:20:45;1.64;;;1.12;;
12072;SDS011;6098;49.004;8.372;2023-09-19T14:35:40;1.83;;;1.12;;
12072;SDS011;6098;49.004;8.372;2023-09-19T14:50:32;1.00;;;0.90;;
12072;SDS011;6098;49.004;8.372;2023-09-19T15:05:23;1.00;;;0.90;;
12072;SDS011;6098;49.004;8.372;2023-09-19T15:20:14;3.00;;;1.00;;
12072;SDS011;6098;49.004;8.372;2023-09-19T15:35:07;1.80;;;1.06;;
12072;SDS011;6098;49.004;8.372;2023-09-19T15:49:59;2.08;;;1.00;;
12072;SDS011;6098;49.004;8.372;2023-09-19T16:04:54;1.50;;;1.01;;
12072;SDS011;6098;49.004;8.372;2023-09-19T16:19:44;1.21;;;1.02;;
12072;SDS011;6098;49.004;8.372;2023-09-19T16:34:36;1.89;;;1.09;;
12072;SDS011;6098;49.004;8.372;2023-09-19T16:49:28;1.67;;;1.16;;
12072;SDS011;6098;49.004;8.372;2023-09-19T17:04:19;1.34;;;1.10;;
12072;SDS011;6098;49.004;8.372;2023-09-19T17:19:11;2.91;;;1.45;;
12072;SDS011;6098;49.004;8.372;2023-09-19T17:34:02;3.65;;;1.29;;
12072;SDS011;6098;49.004;8.372;2023-09-19T17:48:54;1.61;;;1.37;;
12072;SDS011;6098;49.004;8.372;2023-09-19T18:03:44;3.46;;;1.19;;
12072;SDS011;6098;49.004;8.372;2023-09-19T18:18:36;2.03;;;1.51;;
12072;SDS011;6098;49.004;8.372;2023-09-19T18:33:27;1.45;;;1.09;;
12072;SDS011;6098;49.004;8.372;2023-09-19T18:48:18;1.54;;;1.35;;
12072;SDS011;6098;49.004;8.372;2023-09-19T19:03:09;1.50;;;1.36;;
12072;SDS011;6098;49.004;8.372;2023-09-19T19:18:01;1.54;;;1.24;;
12072;SDS011;6098;49.004;8.372;2023-09-19T19:32:53;2.05;;;1.26;;
12072;SDS011;6098;49.004;8.372;2023-09-19T19:47:45;2.60;;;1.10;;
12072;SDS011;6098;49.004;8.372;2023-09-19T20:05:15;1.67;;;1.31;;
12072;SDS011;6098;49.004;8.372;2023-09-19T20:07:44;3.72;;;1.59;;
12072;SDS011;6098;49.004;8.372;2023-09-19T20:22:02;2.09;;;1.46;;
12072;SDS011;6098;49.004;8.372;2023-09-19T20:36:53;1.81;;;1.30;;
12072;SDS011;6098;49.004;8.372;2023-09-19T20:51:44;3.16;;;1.61;;
12072;SDS011;6098;49.004;8.372;2023-09-19T21:06:36;2.41;;;1.41;;
12072;SDS011;6098;49.004;8.372;2023-09-19T21:21:35;4.24;;;1.33;;
12072;SDS011;6098;49.004;8.372;2023-09-19T21:36:30;1.92;;;1.56;;
12072;SDS011;6098;49.004;8.372;2023-09-19T21:51:21;1.85;;;1.15;;
12072;SDS011;6098;49.004;8.372;2023-09-19T22:06:13;2.29;;;1.42;;
12072;SDS011;6098;49.004;8.372;2023-09-19T22:21:04;2.33;;;1.10;;
12072;SDS011;6098;49.004;8.372;2023-09-19T22:35:56;1.25;;;1.15;;
12072;SDS011;6098;49.004;8.372;2023-09-19T23:05:48;2.20;;;1.30;;
12072;SDS011;6098;49.004;8.372;2023-09-19T23:20:40;2.62;;;1.30;;
12072;SDS011;6098;49.004;8.372;2023-09-19T23:35:32;2.71;;;1.80;;
12072;SDS011;6098;49.004;8.372;2023-09-19T23:50:24;1.87;;;1.42;;
